首页
METAR-TAF:

METAR-TAF

机场 :

維也納國際機場

維也納, 奥地利

纬度: 48-07N, 经度: 016-34E, 海拔: 183米

当前天气观测

该预报发布于36分钟前的08:50 UTC
风速3节,风向东南,在南转南东之间变化
温度 12°C
湿度 94%
气压 1015 hPa
能见度10公里或以上
少量云层高于400英尺
多云层高于500英尺

METAR: LOWW 200850Z 13003KT 100V160 9999 FEW004 BKN005 12/11 Q1015 BECMG BKN006

时间: 11:26 (09:26 UTC)

预报

该预报发布于1小时和11分钟前的08:15 UTC
预报有效从20日的 09点(UTC)到 21日的 15点(UTC)
风速2节,风向多变
能见度10公里或以上
少量云层高于400英尺
多云层高于600英尺
短暂存在
从 20日的 09点(UTC)到 20日的 10点(UTC)
少量云层高于300英尺
多云层高于500英尺
成为
从 20日的 10点(UTC)到 20日的 12点(UTC)
散云层高于900英尺
多云层高于1000英尺
成为
从 20日的 12点(UTC)到 20日的 14点(UTC)
少量云层高于1000英尺
散云层高于2500英尺
几率 40% :
短暂存在
从 20日的 14点(UTC)到 20日的 19点(UTC)
风速10节,风向南转南东
能见度10公里或以上
1500米以下无云,无积雨云
成为
从 20日的 19点(UTC)到 20日的 21点(UTC)
能見度: 4000
少量云层高于500英尺
轻雾
成为
从 20日的 22点(UTC)到 20日的 24点(UTC)
能見度: 1200
散云层高于100英尺
碎片雾
短暂存在
从 21日的 01点(UTC)到 21日的 08点(UTC)
能見度: 0500
层高于100英尺
成为
从 21日的 08点(UTC)到 21日的 10点(UTC)
能見度: 4000
多云层高于600英尺
轻雾
成为
从 21日的 10点(UTC)到 21日的 12点(UTC)
能见度10公里或以上
少量云层高于2500英尺

TAF: LOWW 200815Z 2009/2115 VRB02KT 9999 FEW004 BKN006 TX18/2014Z TN09/2105Z TEMPO 2009/2010 FEW003 BKN005 BECMG 2010/2012 SCT009 BKN010 BECMG 2012/2014 FEW010 SCT025 PROB40 TEMPO 2014/2019 16010KT CAVOK BECMG 2019/2021 4000 BR FEW005 BECMG 2022/2024 1200 BCFG SCT001 TEMPO 2101/2108 0500 FG VV001 BECMG 2108/2110 4000 BR BKN006 BECMG 2110/2112 9999 FEW025

超过4000个机场的气象观测和天气预报(METAR&TAF报告)。

可查询的气象台以黄色和红色小点在地图上表示。

将鼠标移到小点上方,可查看气象台名称。

然后点击查看天气观测和预报。

如需切换地图:点击带黑十字的绿色按钮放大地图;点击带横线的绿色按钮缩小地图;或者点击绿色箭头查看邻近地区的地图。


METAR-TAF: